sensor_id;sensor_type;location;lat;lon;timestamp;temperature;humidity
8537;DHT22;4306;50.210;10.628;2024-01-10T00:01:50;-5.90;75.60
8537;DHT22;4306;50.210;10.628;2024-01-10T00:04:17;-6.00;75.40
8537;DHT22;4306;50.210;10.628;2024-01-10T00:06:44;-6.10;76.60
8537;DHT22;4306;50.210;10.628;2024-01-10T00:09:11;-6.20;77.30
8537;DHT22;4306;50.210;10.628;2024-01-10T00:11:38;-6.30;76.20
8537;DHT22;4306;50.210;10.628;2024-01-10T00:14:06;-6.20;76.00
8537;DHT22;4306;50.210;10.628;2024-01-10T00:16:33;-6.10;75.60
8537;DHT22;4306;50.210;10.628;2024-01-10T00:19:00;-6.00;75.00
8537;DHT22;4306;50.210;10.628;2024-01-10T00:21:28;-6.00;75.30
8537;DHT22;4306;50.210;10.628;2024-01-10T00:23:55;-6.00;76.10
8537;DHT22;4306;50.210;10.628;2024-01-10T00:26:22;-6.00;76.70
8537;DHT22;4306;50.210;10.628;2024-01-10T00:28:49;-6.00;77.00
8537;DHT22;4306;50.210;10.628;2024-01-10T00:31:17;-6.00;76.90
8537;DHT22;4306;50.210;10.628;2024-01-10T00:33:44;-6.00;77.20
8537;DHT22;4306;50.210;10.628;2024-01-10T00:36:11;-6.10;77.00
8537;DHT22;4306;50.210;10.628;2024-01-10T00:38:38;-6.00;77.00
8537;DHT22;4306;50.210;10.628;2024-01-10T00:41:06;-6.10;77.90
8537;DHT22;4306;50.210;10.628;2024-01-10T00:43:33;-6.10;78.00
8537;DHT22;4306;50.210;10.628;2024-01-10T00:46:00;-6.20;78.40
8537;DHT22;4306;50.210;10.628;2024-01-10T00:48:29;-6.20;78.30
8537;DHT22;4306;50.210;10.628;2024-01-10T00:50:56;-6.40;78.30
8537;DHT22;4306;50.210;10.628;2024-01-10T00:53:24;-6.40;77.40
8537;DHT22;4306;50.210;10.628;2024-01-10T00:55:51;-6.40;77.30
8537;DHT22;4306;50.210;10.628;2024-01-10T00:58:18;-6.40;77.50
8537;DHT22;4306;50.210;10.628;2024-01-10T01:00:45;-6.40;76.40
8537;DHT22;4306;50.210;10.628;2024-01-10T01:03:12;-6.30;76.70
8537;DHT22;4306;50.210;10.628;2024-01-10T01:05:40;-6.20;77.10
8537;DHT22;4306;50.210;10.628;2024-01-10T01:08:07;-6.40;78.10
8537;DHT22;4306;50.210;10.628;2024-01-10T01:10:34;-6.40;77.00
8537;DHT22;4306;50.210;10.628;2024-01-10T01:13:01;-6.30;77.70
8537;DHT22;4306;50.210;10.628;2024-01-10T01:15:28;-6.40;76.60
8537;DHT22;4306;50.210;10.628;2024-01-10T01:17:55;-6.30;76.90
8537;DHT22;4306;50.210;10.628;2024-01-10T01:20:22;-6.20;77.60
8537;DHT22;4306;50.210;10.628;2024-01-10T01:22:51;-6.20;77.60
8537;DHT22;4306;50.210;10.628;2024-01-10T01:25:18;-6.10;77.60
8537;DHT22;4306;50.210;10.628;2024-01-10T01:27:45;-6.20;77.30
8537;DHT22;4306;50.210;10.628;2024-01-10T01:30:12;-6.30;77.20
8537;DHT22;4306;50.210;10.628;2024-01-10T01:32:40;-6.10;77.60
8537;DHT22;4306;50.210;10.628;2024-01-10T01:35:07;-6.30;77.20
8537;DHT22;4306;50.210;10.628;2024-01-10T01:37:34;-6.30;77.90
8537;DHT22;4306;50.210;10.628;2024-01-10T01:40:03;-6.40;78.50
8537;DHT22;4306;50.210;10.628;2024-01-10T01:42:30;-6.40;78.90
8537;DHT22;4306;50.210;10.628;2024-01-10T01:44:57;-6.50;79.00
8537;DHT22;4306;50.210;10.628;2024-01-10T01:47:25;-6.50;78.90
8537;DHT22;4306;50.210;10.628;2024-01-10T01:49:52;-6.50;78.90
8537;DHT22;4306;50.210;10.628;2024-01-10T01:52:19;-6.60;79.30
8537;DHT22;4306;50.210;10.628;2024-01-10T01:54:47;-6.60;79.60
8537;DHT22;4306;50.210;10.628;2024-01-10T01:57:16;-6.50;78.00
8537;DHT22;4306;50.210;10.628;2024-01-10T01:59:43;-6.40;77.20
8537;DHT22;4306;50.210;10.628;2024-01-10T02:02:11;-5.90;74.00
8537;DHT22;4306;50.210;10.628;2024-01-10T02:04:40;-5.80;74.00
8537;DHT22;4306;50.210;10.628;2024-01-10T02:07:07;-5.80;73.90
8537;DHT22;4306;50.210;10.628;2024-01-10T02:09:34;-5.90;74.60
8537;DHT22;4306;50.210;10.628;2024-01-10T02:12:02;-5.80;74.80
8537;DHT22;4306;50.210;10.628;2024-01-10T02:14:31;-5.70;74.00
8537;DHT22;4306;50.210;10.628;2024-01-10T02:16:58;-5.80;73.40
8537;DHT22;4306;50.210;10.628;2024-01-10T02:19:25;-5.80;73.80
8537;DHT22;4306;50.210;10.628;2024-01-10T02:21:54;-5.80;74.60
8537;DHT22;4306;50.210;10.628;2024-01-10T02:24:22;-5.80;74.00
8537;DHT22;4306;50.210;10.628;2024-01-10T02:26:50;-5.70;73.90
8537;DHT22;4306;50.210;10.628;2024-01-10T02:29:18;-5.80;74.20
8537;DHT22;4306;50.210;10.628;2024-01-10T02:31:45;-5.80;74.50
8537;DHT22;4306;50.210;10.628;2024-01-10T02:34:12;-5.70;74.70
8537;DHT22;4306;50.210;10.628;2024-01-10T02:36:39;-5.70;74.90
8537;DHT22;4306;50.210;10.628;2024-01-10T02:39:06;-5.60;75.10
8537;DHT22;4306;50.210;10.628;2024-01-10T02:41:33;-5.60;75.40
8537;DHT22;4306;50.210;10.628;2024-01-10T02:44:01;-5.60;75.40
8537;DHT22;4306;50.210;10.628;2024-01-10T02:46:29;-5.50;75.70
8537;DHT22;4306;50.210;10.628;2024-01-10T02:48:56;-5.60;75.90
8537;DHT22;4306;50.210;10.628;2024-01-10T02:51:26;-5.60;75.90
8537;DHT22;4306;50.210;10.628;2024-01-10T02:53:53;-5.60;75.70
8537;DHT22;4306;50.210;10.628;2024-01-10T02:56:20;-5.60;74.90
8537;DHT22;4306;50.210;10.628;2024-01-10T02:58:47;-5.50;74.40
8537;DHT22;4306;50.210;10.628;2024-01-10T03:01:16;-5.50;75.00
8537;DHT22;4306;50.210;10.628;2024-01-10T03:03:43;-5.50;74.90
8537;DHT22;4306;50.210;10.628;2024-01-10T03:06:10;-5.50;75.00
8537;DHT22;4306;50.210;10.628;2024-01-10T03:08:37;-5.50;75.10
8537;DHT22;4306;50.210;10.628;2024-01-10T03:11:04;-5.50;76.10
8537;DHT22;4306;50.210;10.628;2024-01-10T03:13:31;-5.60;75.90
8537;DHT22;4306;50.210;10.628;2024-01-10T03:15:59;-5.70;76.30
8537;DHT22;4306;50.210;10.628;2024-01-10T03:18:27;-5.70;77.10
8537;DHT22;4306;50.210;10.628;2024-01-10T03:20:54;-5.90;76.90
8537;DHT22;4306;50.210;10.628;2024-01-10T03:23:22;-5.80;77.00
8537;DHT22;4306;50.210;10.628;2024-01-10T03:25:49;-5.80;76.60
8537;DHT22;4306;50.210;10.628;2024-01-10T03:28:16;-5.80;77.10
8537;DHT22;4306;50.210;10.628;2024-01-10T03:30:44;-5.90;78.10
8537;DHT22;4306;50.210;10.628;2024-01-10T03:33:11;-5.80;77.80
8537;DHT22;4306;50.210;10.628;2024-01-10T03:35:39;-5.80;78.00
8537;DHT22;4306;50.210;10.628;2024-01-10T03:38:06;-5.80;77.80
8537;DHT22;4306;50.210;10.628;2024-01-10T03:40:34;-5.80;77.70
8537;DHT22;4306;50.210;10.628;2024-01-10T03:43:01;-5.80;77.60
8537;DHT22;4306;50.210;10.628;2024-01-10T03:45:28;-5.80;77.60
8537;DHT22;4306;50.210;10.628;2024-01-10T03:47:55;-5.80;77.90
8537;DHT22;4306;50.210;10.628;2024-01-10T03:50:22;-5.80;78.00
8537;DHT22;4306;50.210;10.628;2024-01-10T03:52:50;-5.80;77.90
8537;DHT22;4306;50.210;10.628;2024-01-10T03:55:17;-5.90;77.90
8537;DHT22;4306;50.210;10.628;2024-01-10T03:57:44;-5.90;78.10
8537;DHT22;4306;50.210;10.628;2024-01-10T04:00:12;-6.00;78.80
8537;DHT22;4306;50.210;10.628;2024-01-10T04:02:39;-6.10;78.70
8537;DHT22;4306;50.210;10.628;2024-01-10T04:05:07;-6.10;78.80
8537;DHT22;4306;50.210;10.628;2024-01-10T04:07:39;-6.20;78.70
8537;DHT22;4306;50.210;10.628;2024-01-10T04:10:10;-6.20;78.60
8537;DHT22;4306;50.210;10.628;2024-01-10T04:12:39;-6.20;79.20
8537;DHT22;4306;50.210;10.628;2024-01-10T04:15:07;-6.20;78.80
8537;DHT22;4306;50.210;10.628;2024-01-10T04:17:34;-6.20;79.20
8537;DHT22;4306;50.210;10.628;2024-01-10T04:20:02;-6.20;79.20
8537;DHT22;4306;50.210;10.628;2024-01-10T04:22:29;-6.20;79.90
8537;DHT22;4306;50.210;10.628;2024-01-10T04:24:57;-6.30;80.10
8537;DHT22;4306;50.210;10.628;2024-01-10T04:27:27;-6.20;79.50
8537;DHT22;4306;50.210;10.628;2024-01-10T04:29:54;-6.10;79.80
8537;DHT22;4306;50.210;10.628;2024-01-10T04:32:21;-6.10;79.80
8537;DHT22;4306;50.210;10.628;2024-01-10T04:34:48;-6.10;80.50
8537;DHT22;4306;50.210;10.628;2024-01-10T04:37:15;-6.10;80.80
8537;DHT22;4306;50.210;10.628;2024-01-10T04:39:42;-6.10;80.80
8537;DHT22;4306;50.210;10.628;2024-01-10T04:42:10;-6.00;80.70
8537;DHT22;4306;50.210;10.628;2024-01-10T04:44:39;-6.10;80.70
8537;DHT22;4306;50.210;10.628;2024-01-10T04:47:07;-6.10;80.80
8537;DHT22;4306;50.210;10.628;2024-01-10T04:49:34;-6.00;82.40
8537;DHT22;4306;50.210;10.628;2024-01-10T04:52:01;-6.10;81.70
8537;DHT22;4306;50.210;10.628;2024-01-10T04:54:28;-6.10;81.50
8537;DHT22;4306;50.210;10.628;2024-01-10T04:56:55;-6.10;81.70
8537;DHT22;4306;50.210;10.628;2024-01-10T04:59:22;-6.10;82.20
8537;DHT22;4306;50.210;10.628;2024-01-10T05:01:50;-6.20;82.30
8537;DHT22;4306;50.210;10.628;2024-01-10T05:04:17;-6.20;82.80
8537;DHT22;4306;50.210;10.628;2024-01-10T05:06:44;-6.20;82.40
8537;DHT22;4306;50.210;10.628;2024-01-10T05:09:12;-6.20;82.00
8537;DHT22;4306;50.210;10.628;2024-01-10T05:11:39;-6.20;81.70
8537;DHT22;4306;50.210;10.628;2024-01-10T05:14:06;-6.10;82.30
8537;DHT22;4306;50.210;10.628;2024-01-10T05:16:33;-6.10;81.40
8537;DHT22;4306;50.210;10.628;2024-01-10T05:19:02;-6.10;81.50
8537;DHT22;4306;50.210;10.628;2024-01-10T05:21:29;-6.10;81.90
8537;DHT22;4306;50.210;10.628;2024-01-10T05:23:57;-6.20;82.80
8537;DHT22;4306;50.210;10.628;2024-01-10T05:26:24;-6.20;83.10
8537;DHT22;4306;50.210;10.628;2024-01-10T05:28:51;-6.20;83.00
8537;DHT22;4306;50.210;10.628;2024-01-10T05:31:18;-6.20;84.10
8537;DHT22;4306;50.210;10.628;2024-01-10T05:33:45;-6.20;83.00
8537;DHT22;4306;50.210;10.628;2024-01-10T05:36:13;-6.20;82.30
8537;DHT22;4306;50.210;10.628;2024-01-10T05:38:40;-6.10;82.00
8537;DHT22;4306;50.210;10.628;2024-01-10T05:41:07;-6.10;82.10
8537;DHT22;4306;50.210;10.628;2024-01-10T05:43:34;-6.00;82.20
8537;DHT22;4306;50.210;10.628;2024-01-10T05:46:02;-6.20;82.50
8537;DHT22;4306;50.210;10.628;2024-01-10T05:48:30;-6.30;84.00
8537;DHT22;4306;50.210;10.628;2024-01-10T05:50:57;-6.40;85.50
8537;DHT22;4306;50.210;10.628;2024-01-10T05:53:26;-6.50;86.10
8537;DHT22;4306;50.210;10.628;2024-01-10T05:55:53;-6.50;86.20
8537;DHT22;4306;50.210;10.628;2024-01-10T05:58:20;-6.50;87.40
8537;DHT22;4306;50.210;10.628;2024-01-10T06:00:47;-6.50;86.80
8537;DHT22;4306;50.210;10.628;2024-01-10T06:03:14;-6.60;86.50
8537;DHT22;4306;50.210;10.628;2024-01-10T06:05:41;-6.50;87.50
8537;DHT22;4306;50.210;10.628;2024-01-10T06:08:08;-6.50;86.60
8537;DHT22;4306;50.210;10.628;2024-01-10T06:10:36;-6.50;86.50
8537;DHT22;4306;50.210;10.628;2024-01-10T06:13:03;-6.50;86.40
8537;DHT22;4306;50.210;10.628;2024-01-10T06:15:30;-6.40;86.20
8537;DHT22;4306;50.210;10.628;2024-01-10T06:17:57;-6.40;85.70
8537;DHT22;4306;50.210;10.628;2024-01-10T06:20:24;-6.30;85.00
8537;DHT22;4306;50.210;10.628;2024-01-10T06:22:51;-6.30;84.50
8537;DHT22;4306;50.210;10.628;2024-01-10T06:25:18;-6.40;84.10
8537;DHT22;4306;50.210;10.628;2024-01-10T06:27:47;-6.40;84.50
8537;DHT22;4306;50.210;10.628;2024-01-10T06:30:14;-6.40;83.90
8537;DHT22;4306;50.210;10.628;2024-01-10T06:32:42;-6.40;83.90
8537;DHT22;4306;50.210;10.628;2024-01-10T06:35:08;-6.30;84.00
8537;DHT22;4306;50.210;10.628;2024-01-10T06:37:36;-6.50;84.30
8537;DHT22;4306;50.210;10.628;2024-01-10T06:40:05;-6.50;83.80
8537;DHT22;4306;50.210;10.628;2024-01-10T06:42:33;-6.50;83.80
8537;DHT22;4306;50.210;10.628;2024-01-10T06:45:01;-6.50;83.80
8537;DHT22;4306;50.210;10.628;2024-01-10T06:47:28;-6.40;84.30
8537;DHT22;4306;50.210;10.628;2024-01-10T06:49:55;-6.50;83.80
8537;DHT22;4306;50.210;10.628;2024-01-10T06:52:22;-6.50;84.00
8537;DHT22;4306;50.210;10.628;2024-01-10T06:54:49;-6.50;84.30
8537;DHT22;4306;50.210;10.628;2024-01-10T06:57:16;-6.60;85.50
8537;DHT22;4306;50.210;10.628;2024-01-10T06:59:43;-6.60;85.90
8537;DHT22;4306;50.210;10.628;2024-01-10T07:02:12;-6.70;88.30
8537;DHT22;4306;50.210;10.628;2024-01-10T07:04:39;-6.60;89.90
8537;DHT22;4306;50.210;10.628;2024-01-10T07:07:06;-6.50;89.90
8537;DHT22;4306;50.210;10.628;2024-01-10T07:09:34;-6.50;89.70
8537;DHT22;4306;50.210;10.628;2024-01-10T07:12:01;-6.40;90.00
8537;DHT22;4306;50.210;10.628;2024-01-10T07:14:29;-6.40;89.90
8537;DHT22;4306;50.210;10.628;2024-01-10T07:16:56;-6.40;90.00
8537;DHT22;4306;50.210;10.628;2024-01-10T07:19:25;-6.30;90.10
8537;DHT22;4306;50.210;10.628;2024-01-10T07:21:52;-6.30;89.90
8537;DHT22;4306;50.210;10.628;2024-01-10T07:24:19;-6.30;90.00
8537;DHT22;4306;50.210;10.628;2024-01-10T07:26:46;-6.30;90.00
8537;DHT22;4306;50.210;10.628;2024-01-10T07:29:13;-6.30;90.00
8537;DHT22;4306;50.210;10.628;2024-01-10T07:31:40;-6.30;89.80
8537;DHT22;4306;50.210;10.628;2024-01-10T07:34:07;-6.20;90.10
8537;DHT22;4306;50.210;10.628;2024-01-10T07:36:41;-6.20;90.00
8537;DHT22;4306;50.210;10.628;2024-01-10T07:39:09;-6.10;89.80
8537;DHT22;4306;50.210;10.628;2024-01-10T07:41:36;-6.00;89.90
8537;DHT22;4306;50.210;10.628;2024-01-10T07:44:03;-6.00;90.10
8537;DHT22;4306;50.210;10.628;2024-01-10T07:46:30;-5.90;89.90
8537;DHT22;4306;50.210;10.628;2024-01-10T07:48:58;-5.80;90.10
8537;DHT22;4306;50.210;10.628;2024-01-10T07:51:25;-5.80;90.10
8537;DHT22;4306;50.210;10.628;2024-01-10T07:53:54;-5.70;90.00
8537;DHT22;4306;50.210;10.628;2024-01-10T07:56:21;-5.60;89.30
8537;DHT22;4306;50.210;10.628;2024-01-10T07:58:48;-5.70;89.00
8537;DHT22;4306;50.210;10.628;2024-01-10T08:01:17;-5.60;88.80
8537;DHT22;4306;50.210;10.628;2024-01-10T08:03:44;-5.70;88.50
8537;DHT22;4306;50.210;10.628;2024-01-10T08:06:11;-5.60;88.30
8537;DHT22;4306;50.210;10.628;2024-01-10T08:08:39;-5.70;88.00
8537;DHT22;4306;50.210;10.628;2024-01-10T08:11:08;-5.70;87.90
8537;DHT22;4306;50.210;10.628;2024-01-10T08:13:35;-5.70;88.90
8537;DHT22;4306;50.210;10.628;2024-01-10T08:16:02;-5.70;89.60
8537;DHT22;4306;50.210;10.628;2024-01-10T08:18:30;-5.50;89.30
8537;DHT22;4306;50.210;10.628;2024-01-10T08:20:56;-5.50;90.00
8537;DHT22;4306;50.210;10.628;2024-01-10T08:23:23;-5.20;90.10
8537;DHT22;4306;50.210;10.628;2024-01-10T08:25:51;-5.10;89.80
8537;DHT22;4306;50.210;10.628;2024-01-10T08:28:19;-4.90;89.70
8537;DHT22;4306;50.210;10.628;2024-01-10T08:30:46;-4.90;89.10
8537;DHT22;4306;50.210;10.628;2024-01-10T08:33:13;-4.80;89.70
8537;DHT22;4306;50.210;10.628;2024-01-10T08:35:40;-4.70;89.20
8537;DHT22;4306;50.210;10.628;2024-01-10T08:38:08;-4.60;89.00
8537;DHT22;4306;50.210;10.628;2024-01-10T08:40:35;-4.50;89.40
8537;DHT22;4306;50.210;10.628;2024-01-10T08:43:03;-4.40;89.10
8537;DHT22;4306;50.210;10.628;2024-01-10T08:45:31;-4.30;88.90
8537;DHT22;4306;50.210;10.628;2024-01-10T08:47:58;-4.20;88.50
8537;DHT22;4306;50.210;10.628;2024-01-10T08:50:25;-4.20;88.30
8537;DHT22;4306;50.210;10.628;2024-01-10T08:52:52;-4.20;88.30
8537;DHT22;4306;50.210;10.628;2024-01-10T08:55:19;-4.10;90.00
8537;DHT22;4306;50.210;10.628;2024-01-10T08:57:46;-3.90;89.70
8537;DHT22;4306;50.210;10.628;2024-01-10T09:00:15;-3.70;89.40
8537;DHT22;4306;50.210;10.628;2024-01-10T09:02:44;-3.60;88.90
8537;DHT22;4306;50.210;10.628;2024-01-10T09:05:11;-3.40;88.70
8537;DHT22;4306;50.210;10.628;2024-01-10T09:07:38;-3.40;88.20
8537;DHT22;4306;50.210;10.628;2024-01-10T09:10:06;-3.40;88.30
8537;DHT22;4306;50.210;10.628;2024-01-10T09:12:34;-3.30;87.90
8537;DHT22;4306;50.210;10.628;2024-01-10T09:15:01;-3.20;87.00
8537;DHT22;4306;50.210;10.628;2024-01-10T09:17:28;-3.10;86.50
8537;DHT22;4306;50.210;10.628;2024-01-10T09:19:55;-3.10;86.90
8537;DHT22;4306;50.210;10.628;2024-01-10T09:22:23;-3.00;86.70
8537;DHT22;4306;50.210;10.628;2024-01-10T09:24:50;-2.80;85.90
8537;DHT22;4306;50.210;10.628;2024-01-10T09:27:17;-2.80;85.80
8537;DHT22;4306;50.210;10.628;2024-01-10T09:29:44;-2.70;86.10
8537;DHT22;4306;50.210;10.628;2024-01-10T09:32:11;-2.60;86.30
8537;DHT22;4306;50.210;10.628;2024-01-10T09:34:38;-2.60;86.40
8537;DHT22;4306;50.210;10.628;2024-01-10T09:37:06;-2.50;86.40
8537;DHT22;4306;50.210;10.628;2024-01-10T09:39:33;-2.50;86.20
8537;DHT22;4306;50.210;10.628;2024-01-10T09:42:00;-2.40;85.40
8537;DHT22;4306;50.210;10.628;2024-01-10T09:44:28;-2.40;85.80
8537;DHT22;4306;50.210;10.628;2024-01-10T09:46:55;-2.30;85.40
8537;DHT22;4306;50.210;10.628;2024-01-10T09:49:22;-2.20;85.40
8537;DHT22;4306;50.210;10.628;2024-01-10T09:51:53;-2.20;85.10
8537;DHT22;4306;50.210;10.628;2024-01-10T09:54:26;-2.10;85.30
8537;DHT22;4306;50.210;10.628;2024-01-10T09:56:56;-2.10;85.00
8537;DHT22;4306;50.210;10.628;2024-01-10T09:59:24;-2.10;85.70
8537;DHT22;4306;50.210;10.628;2024-01-10T10:01:52;-2.00;85.70
8537;DHT22;4306;50.210;10.628;2024-01-10T10:04:20;-1.90;85.70
8537;DHT22;4306;50.210;10.628;2024-01-10T10:06:58;-1.80;85.30
8537;DHT22;4306;50.210;10.628;2024-01-10T10:09:28;-1.80;85.00
8537;DHT22;4306;50.210;10.628;2024-01-10T10:11:56;-1.70;84.30
8537;DHT22;4306;50.210;10.628;2024-01-10T10:14:24;-1.70;85.50
8537;DHT22;4306;50.210;10.628;2024-01-10T10:16:52;-1.60;85.20
8537;DHT22;4306;50.210;10.628;2024-01-10T10:19:22;-1.50;84.90
8537;DHT22;4306;50.210;10.628;2024-01-10T10:21:50;-1.50;85.00
8537;DHT22;4306;50.210;10.628;2024-01-10T10:24:17;-1.40;83.90
8537;DHT22;4306;50.210;10.628;2024-01-10T10:26:45;-1.40;84.10
8537;DHT22;4306;50.210;10.628;2024-01-10T10:29:16;-1.40;84.00
8537;DHT22;4306;50.210;10.628;2024-01-10T10:31:47;-1.30;83.90
8537;DHT22;4306;50.210;10.628;2024-01-10T10:34:20;-1.20;84.00
8537;DHT22;4306;50.210;10.628;2024-01-10T10:36:48;-1.20;84.50
8537;DHT22;4306;50.210;10.628;2024-01-10T10:39:16;-1.10;84.40
8537;DHT22;4306;50.210;10.628;2024-01-10T10:41:45;-1.00;83.30
8537;DHT22;4306;50.210;10.628;2024-01-10T10:44:19;-0.90;84.30
8537;DHT22;4306;50.210;10.628;2024-01-10T10:46:49;-0.90;84.30
8537;DHT22;4306;50.210;10.628;2024-01-10T10:49:25;-0.70;83.70
8537;DHT22;4306;50.210;10.628;2024-01-10T10:51:58;-0.80;82.80
8537;DHT22;4306;50.210;10.628;2024-01-10T10:54:28;-0.80;83.00
8537;DHT22;4306;50.210;10.628;2024-01-10T10:57:02;-0.70;84.00
8537;DHT22;4306;50.210;10.628;2024-01-10T10:59:34;-0.60;83.40
8537;DHT22;4306;50.210;10.628;2024-01-10T11:02:02;-0.50;82.80
8537;DHT22;4306;50.210;10.628;2024-01-10T11:04:29;-0.50;83.20
8537;DHT22;4306;50.210;10.628;2024-01-10T11:06:56;-0.50;83.70
8537;DHT22;4306;50.210;10.628;2024-01-10T11:09:24;-0.50;82.70
8537;DHT22;4306;50.210;10.628;2024-01-10T11:12:13;-0.40;83.30
8537;DHT22;4306;50.210;10.628;2024-01-10T11:15:02;-0.30;82.40
8537;DHT22;4306;50.210;10.628;2024-01-10T11:20:58;-0.20;82.20
8537;DHT22;4306;50.210;10.628;2024-01-10T11:23:43;-0.20;82.40
8537;DHT22;4306;50.210;10.628;2024-01-10T11:26:14;-0.10;83.00
8537;DHT22;4306;50.210;10.628;2024-01-10T11:28:43;0.00;82.00
8537;DHT22;4306;50.210;10.628;2024-01-10T11:31:13;0.00;82.20
8537;DHT22;4306;50.210;10.628;2024-01-10T11:33:42;0.10;82.60
8537;DHT22;4306;50.210;10.628;2024-01-10T11:36:12;0.10;82.90
8537;DHT22;4306;50.210;10.628;2024-01-10T11:38:58;0.20;82.40
8537;DHT22;4306;50.210;10.628;2024-01-10T11:41:29;0.30;82.50
8537;DHT22;4306;50.210;10.628;2024-01-10T11:44:26;0.30;82.20
8537;DHT22;4306;50.210;10.628;2024-01-10T11:46:55;0.40;82.50
8537;DHT22;4306;50.210;10.628;2024-01-10T11:49:24;0.50;83.00
8537;DHT22;4306;50.210;10.628;2024-01-10T11:51:54;0.40;81.00
8537;DHT22;4306;50.210;10.628;2024-01-10T11:54:39;0.40;80.60
8537;DHT22;4306;50.210;10.628;2024-01-10T11:57:14;0.40;80.60
8537;DHT22;4306;50.210;10.628;2024-01-10T11:59:50;0.50;80.70
8537;DHT22;4306;50.210;10.628;2024-01-10T12:02:18;0.40;80.60
8537;DHT22;4306;50.210;10.628;2024-01-10T12:04:45;0.50;82.70
8537;DHT22;4306;50.210;10.628;2024-01-10T12:07:13;0.70;82.50
8537;DHT22;4306;50.210;10.628;2024-01-10T12:09:40;0.80;81.30
8537;DHT22;4306;50.210;10.628;2024-01-10T12:12:08;0.80;81.70
8537;DHT22;4306;50.210;10.628;2024-01-10T12:14:37;0.90;81.10
8537;DHT22;4306;50.210;10.628;2024-01-10T12:17:06;0.80;80.70
8537;DHT22;4306;50.210;10.628;2024-01-10T12:19:34;0.90;82.10
8537;DHT22;4306;50.210;10.628;2024-01-10T12:22:02;0.80;81.40
8537;DHT22;4306;50.210;10.628;2024-01-10T12:24:31;0.80;81.00
8537;DHT22;4306;50.210;10.628;2024-01-10T12:26:58;0.80;81.00
8537;DHT22;4306;50.210;10.628;2024-01-10T12:29:26;0.90;81.40
8537;DHT22;4306;50.210;10.628;2024-01-10T12:31:53;0.90;81.10
8537;DHT22;4306;50.210;10.628;2024-01-10T12:34:21;1.00;81.20
8537;DHT22;4306;50.210;10.628;2024-01-10T12:36:48;0.90;79.10
8537;DHT22;4306;50.210;10.628;2024-01-10T12:39:16;0.90;81.50
8537;DHT22;4306;50.210;10.628;2024-01-10T12:41:43;1.10;82.30
8537;DHT22;4306;50.210;10.628;2024-01-10T12:44:11;1.30;82.00
8537;DHT22;4306;50.210;10.628;2024-01-10T12:46:50;1.20;80.10
8537;DHT22;4306;50.210;10.628;2024-01-10T12:49:18;1.20;80.60
8537;DHT22;4306;50.210;10.628;2024-01-10T12:51:47;1.20;80.60
8537;DHT22;4306;50.210;10.628;2024-01-10T12:54:15;1.30;80.00
8537;DHT22;4306;50.210;10.628;2024-01-10T12:56:42;1.40;81.10
8537;DHT22;4306;50.210;10.628;2024-01-10T12:59:10;1.40;79.90
8537;DHT22;4306;50.210;10.628;2024-01-10T13:01:38;1.30;79.30
8537;DHT22;4306;50.210;10.628;2024-01-10T13:04:05;1.30;80.50
8537;DHT22;4306;50.210;10.628;2024-01-10T13:06:32;1.50;80.30
8537;DHT22;4306;50.210;10.628;2024-01-10T13:09:00;1.50;79.00
8537;DHT22;4306;50.210;10.628;2024-01-10T13:11:27;1.50;80.20
8537;DHT22;4306;50.210;10.628;2024-01-10T13:13:55;1.40;79.80
8537;DHT22;4306;50.210;10.628;2024-01-10T13:16:22;1.40;79.60
8537;DHT22;4306;50.210;10.628;2024-01-10T13:18:49;1.50;80.50
8537;DHT22;4306;50.210;10.628;2024-01-10T13:21:18;1.50;80.70
8537;DHT22;4306;50.210;10.628;2024-01-10T13:23:46;1.50;79.20
8537;DHT22;4306;50.210;10.628;2024-01-10T13:26:14;1.40;79.10
8537;DHT22;4306;50.210;10.628;2024-01-10T13:28:41;1.40;79.10
8537;DHT22;4306;50.210;10.628;2024-01-10T13:31:08;1.50;79.50
8537;DHT22;4306;50.210;10.628;2024-01-10T13:33:36;1.40;79.10
8537;DHT22;4306;50.210;10.628;2024-01-10T13:36:04;1.50;79.70
8537;DHT22;4306;50.210;10.628;2024-01-10T13:38:31;1.60;80.50
8537;DHT22;4306;50.210;10.628;2024-01-10T13:40:58;1.60;80.40
8537;DHT22;4306;50.210;10.628;2024-01-10T13:43:28;1.70;80.60
8537;DHT22;4306;50.210;10.628;2024-01-10T13:45:55;1.60;79.30
8537;DHT22;4306;50.210;10.628;2024-01-10T13:48:22;1.40;79.80
8537;DHT22;4306;50.210;10.628;2024-01-10T13:50:49;1.40;79.30
8537;DHT22;4306;50.210;10.628;2024-01-10T13:53:16;1.40;79.60
8537;DHT22;4306;50.210;10.628;2024-01-10T13:55:43;1.30;79.50
8537;DHT22;4306;50.210;10.628;2024-01-10T13:58:11;1.20;80.10
8537;DHT22;4306;50.210;10.628;2024-01-10T14:00:40;1.20;80.00
8537;DHT22;4306;50.210;10.628;2024-01-10T14:03:07;1.00;80.10
8537;DHT22;4306;50.210;10.628;2024-01-10T14:05:34;0.90;80.50
8537;DHT22;4306;50.210;10.628;2024-01-10T14:08:02;1.00;81.20
8537;DHT22;4306;50.210;10.628;2024-01-10T14:10:29;1.00;81.20
8537;DHT22;4306;50.210;10.628;2024-01-10T14:12:56;1.00;81.00
8537;DHT22;4306;50.210;10.628;2024-01-10T14:15:23;1.10;80.20
8537;DHT22;4306;50.210;10.628;2024-01-10T14:17:51;1.10;80.20
8537;DHT22;4306;50.210;10.628;2024-01-10T14:20:19;1.00;80.00
8537;DHT22;4306;50.210;10.628;2024-01-10T14:22:47;1.10;80.70
8537;DHT22;4306;50.210;10.628;2024-01-10T14:25:15;1.10;80.10
8537;DHT22;4306;50.210;10.628;2024-01-10T14:27:42;1.10;80.70
8537;DHT22;4306;50.210;10.628;2024-01-10T14:30:10;1.10;80.20
8537;DHT22;4306;50.210;10.628;2024-01-10T14:32:39;1.10;80.70
8537;DHT22;4306;50.210;10.628;2024-01-10T14:35:08;1.10;80.70
8537;DHT22;4306;50.210;10.628;2024-01-10T14:37:35;1.00;81.20
8537;DHT22;4306;50.210;10.628;2024-01-10T14:40:03;1.00;81.00
8537;DHT22;4306;50.210;10.628;2024-01-10T14:42:32;1.00;81.20
8537;DHT22;4306;50.210;10.628;2024-01-10T14:44:59;1.00;81.50
8537;DHT22;4306;50.210;10.628;2024-01-10T14:47:27;1.00;81.70
8537;DHT22;4306;50.210;10.628;2024-01-10T14:49:54;1.00;81.80
8537;DHT22;4306;50.210;10.628;2024-01-10T14:52:24;1.00;81.70
8537;DHT22;4306;50.210;10.628;2024-01-10T14:54:51;1.00;81.80
8537;DHT22;4306;50.210;10.628;2024-01-10T14:57:19;0.90;82.30
8537;DHT22;4306;50.210;10.628;2024-01-10T14:59:46;0.80;82.90
8537;DHT22;4306;50.210;10.628;2024-01-10T15:02:14;0.70;83.00
8537;DHT22;4306;50.210;10.628;2024-01-10T15:04:42;0.70;83.70
8537;DHT22;4306;50.210;10.628;2024-01-10T15:07:09;0.60;84.10
8537;DHT22;4306;50.210;10.628;2024-01-10T15:09:38;0.70;84.20
8537;DHT22;4306;50.210;10.628;2024-01-10T15:12:05;0.70;83.60
8537;DHT22;4306;50.210;10.628;2024-01-10T15:14:36;0.70;84.20
8537;DHT22;4306;50.210;10.628;2024-01-10T15:17:10;0.80;84.30
8537;DHT22;4306;50.210;10.628;2024-01-10T15:19:38;0.70;84.20
8537;DHT22;4306;50.210;10.628;2024-01-10T15:22:05;0.60;84.20
8537;DHT22;4306;50.210;10.628;2024-01-10T15:24:33;0.50;85.20
8537;DHT22;4306;50.210;10.628;2024-01-10T15:27:02;0.20;85.60
8537;DHT22;4306;50.210;10.628;2024-01-10T15:29:34;0.10;86.80
8537;DHT22;4306;50.210;10.628;2024-01-10T15:32:02;0.20;86.30
8537;DHT22;4306;50.210;10.628;2024-01-10T15:34:30;0.10;86.10
8537;DHT22;4306;50.210;10.628;2024-01-10T15:36:57;0.10;86.50
8537;DHT22;4306;50.210;10.628;2024-01-10T15:39:24;0.20;86.20
8537;DHT22;4306;50.210;10.628;2024-01-10T15:41:52;0.10;86.60
8537;DHT22;4306;50.210;10.628;2024-01-10T15:44:20;-0.10;88.40
8537;DHT22;4306;50.210;10.628;2024-01-10T15:46:47;-0.40;89.60
8537;DHT22;4306;50.210;10.628;2024-01-10T15:49:14;-0.60;90.20
8537;DHT22;4306;50.210;10.628;2024-01-10T15:51:42;-0.60;90.20
8537;DHT22;4306;50.210;10.628;2024-01-10T15:54:10;-0.70;89.30
8537;DHT22;4306;50.210;10.628;2024-01-10T15:56:37;-0.60;89.00
8537;DHT22;4306;50.210;10.628;2024-01-10T15:59:06;-0.70;89.00